createdAt,value
2022-12-19T00:02:06.255Z,15.57
2022-12-19T00:04:35.658Z,14.53
2022-12-19T00:07:04.536Z,13.57
2022-12-19T00:09:33.304Z,12.90
2022-12-19T00:12:05.585Z,13.50
2022-12-19T00:14:37.357Z,13.53
2022-12-19T00:17:06.196Z,15.73
2022-12-19T00:19:35.008Z,14.87
2022-12-19T00:22:07.072Z,13.50
2022-12-19T00:24:38.462Z,14.87
2022-12-19T00:27:08.694Z,12.07
2022-12-19T00:29:37.839Z,12.67
2022-12-19T00:32:07.196Z,12.10
2022-12-19T00:34:38.021Z,11.70
2022-12-19T00:37:07.076Z,11.67
2022-12-19T00:39:36.375Z,12.73
2022-12-19T00:42:05.565Z,12.90
2022-12-19T00:44:36.658Z,12.53
2022-12-19T00:47:05.732Z,12.33
2022-12-19T00:49:34.891Z,12.70
2022-12-19T00:52:04.937Z,12.17
2022-12-19T00:54:33.989Z,13.23
2022-12-19T00:57:03.529Z,13.13
2022-12-19T00:59:32.336Z,12.83
2022-12-19T01:02:02.677Z,13.73
2022-12-19T01:04:36.751Z,13.57
2022-12-19T01:07:08.804Z,14.10
2022-12-19T01:09:38.424Z,12.17
2022-12-19T01:12:26.104Z,13.13
2022-12-19T01:15:04.662Z,13.70
2022-12-19T01:17:38.728Z,13.43
2022-12-19T01:20:29.110Z,12.70
2022-12-19T01:23:00.170Z,13.67
2022-12-19T01:25:29.794Z,13.30
2022-12-19T01:27:59.261Z,14.07
2022-12-19T01:30:30.846Z,13.47
2022-12-19T01:33:02.876Z,14.03
2022-12-19T01:35:31.698Z,12.97
2022-12-19T01:38:08.615Z,13.07
2022-12-19T01:40:38.575Z,13.30
2022-12-19T01:43:07.885Z,12.93
2022-12-19T01:45:45.210Z,13.07
2022-12-19T01:48:21.571Z,12.83
2022-12-19T01:51:01.956Z,13.93
2022-12-19T01:53:48.241Z,13.60
2022-12-19T01:56:25.591Z,12.77
2022-12-19T01:59:06.676Z,14.33
2022-12-19T02:01:51.079Z,12.47
2022-12-19T02:04:32.593Z,11.90
2022-12-19T02:07:09.378Z,13.40
2022-12-19T02:09:47.236Z,13.23
2022-12-19T02:12:26.656Z,12.87
2022-12-19T02:15:03.052Z,12.67
2022-12-19T02:17:52.635Z,12.77
2022-12-19T02:21:10.979Z,12.30
2022-12-19T02:24:57.519Z,13.20
2022-12-19T02:28:21.161Z,12.83
2022-12-19T02:31:11.414Z,12.87
2022-12-19T02:33:56.686Z,12.93
2022-12-19T02:36:40.469Z,13.67
2022-12-19T02:39:19.396Z,13.13
2022-12-19T02:41:56.874Z,13.17
2022-12-19T02:44:33.165Z,13.77
2022-12-19T02:47:06.843Z,13.70
2022-12-19T02:49:39.657Z,13.93
2022-12-19T02:52:15.405Z,13.13
2022-12-19T02:54:45.099Z,15.73
2022-12-19T02:57:29.350Z,15.03
2022-12-19T03:00:09.658Z,14.43
2022-12-19T03:03:00.458Z,14.10
2022-12-19T03:05:41.499Z,14.73
2022-12-19T03:08:20.738Z,13.77
2022-12-19T03:10:58.986Z,13.10
2022-12-19T03:13:33.657Z,13.90
2022-12-19T03:16:05.951Z,15.77
2022-12-19T03:18:36.363Z,14.53
2022-12-19T03:21:16.822Z,14.10
2022-12-19T03:23:48.709Z,13.63
2022-12-19T03:26:22.054Z,14.07
2022-12-19T03:28:57.410Z,14.13
2022-12-19T03:31:31.852Z,10.53
2022-12-19T03:34:06.155Z,11.57
2022-12-19T03:36:45.255Z,12.27
2022-12-19T03:39:17.946Z,11.80
2022-12-19T03:42:04.770Z,9.20
2022-12-19T03:44:40.411Z,9.60
2022-12-19T03:47:16.899Z,10.47
2022-12-19T03:49:48.977Z,10.90
2022-12-19T03:52:30.268Z,9.17
2022-12-19T03:55:10.279Z,8.00
2022-12-19T03:57:47.144Z,8.27
2022-12-19T04:00:19.055Z,8.30
2022-12-19T04:02:58.906Z,9.80
2022-12-19T04:05:31.094Z,9.07
2022-12-19T04:08:07.172Z,9.10
2022-12-19T04:10:44.849Z,9.43
2022-12-19T04:13:19.235Z,9.83
2022-12-19T04:16:21.689Z,11.23
2022-12-19T04:19:00.238Z,9.57
2022-12-19T04:21:43.724Z,10.43
2022-12-19T04:24:20.443Z,10.87
2022-12-19T04:26:54.976Z,10.60
2022-12-19T04:29:26.713Z,10.23
2022-12-19T04:31:55.862Z,10.00
2022-12-19T04:34:24.737Z,10.63
2022-12-19T04:37:03.662Z,10.13
2022-12-19T04:39:32.632Z,10.47
2022-12-19T04:42:01.414Z,9.53
2022-12-19T04:44:30.312Z,10.73
2022-12-19T04:46:59.081Z,11.10
2022-12-19T04:49:29.728Z,11.63
2022-12-19T04:52:00.339Z,10.77
2022-12-19T04:54:29.623Z,9.27
2022-12-19T04:56:58.922Z,9.60
2022-12-19T04:59:27.912Z,10.37
2022-12-19T05:01:56.855Z,9.97
2022-12-19T05:04:26.094Z,9.97
2022-12-19T05:06:54.831Z,10.17
2022-12-19T05:09:25.436Z,9.77
2022-12-19T05:11:54.117Z,9.63
2022-12-19T05:14:23.279Z,10.17
2022-12-19T05:16:57.213Z,9.73
2022-12-19T05:19:29.610Z,9.93
2022-12-19T05:21:58.454Z,10.13
2022-12-19T05:24:28.825Z,13.43
2022-12-19T05:26:57.834Z,10.13
2022-12-19T05:29:27.059Z,10.23
2022-12-19T05:31:56.388Z,10.07
2022-12-19T05:34:26.508Z,10.10
2022-12-19T05:36:55.316Z,9.77
2022-12-19T05:39:24.729Z,9.63
2022-12-19T05:41:54.893Z,9.30
2022-12-19T05:44:24.087Z,9.77
2022-12-19T05:46:53.424Z,9.90
2022-12-19T05:49:23.142Z,9.70
2022-12-19T05:51:53.454Z,9.27
2022-12-19T05:54:22.303Z,8.67
2022-12-19T05:56:51.074Z,8.97
2022-12-19T05:59:21.178Z,16.13
2022-12-19T06:01:49.985Z,27.03
2022-12-19T06:04:18.806Z,10.20
2022-12-19T06:06:47.507Z,25.33
2022-12-19T06:09:16.264Z,10.70
2022-12-19T06:11:45.132Z,13.67
2022-12-19T06:14:14.947Z,10.47
2022-12-19T06:16:45.149Z,12.50
2022-12-19T06:19:13.956Z,8.33
2022-12-19T06:21:48.257Z,9.37
2022-12-19T06:24:17.666Z,9.20
2022-12-19T06:26:46.795Z,10.03
2022-12-19T06:29:15.512Z,9.53
2022-12-19T06:31:45.922Z,9.00
2022-12-19T06:34:32.975Z,9.47
2022-12-19T06:37:07.950Z,9.50
2022-12-19T06:39:37.339Z,9.27
2022-12-19T06:42:23.717Z,9.70
2022-12-19T06:44:54.366Z,11.03
2022-12-19T06:47:26.764Z,10.23
2022-12-19T06:49:55.549Z,9.23
2022-12-19T06:52:24.375Z,9.87
2022-12-19T06:54:53.086Z,9.33
2022-12-19T06:57:21.912Z,10.27
2022-12-19T06:59:50.628Z,9.47
2022-12-19T07:02:30.178Z,8.60
2022-12-19T07:05:05.122Z,9.60
2022-12-19T07:07:34.827Z,9.03
2022-12-19T07:10:03.709Z,8.90
2022-12-19T07:12:32.601Z,9.67
2022-12-19T07:15:01.323Z,8.77
2022-12-19T07:17:31.859Z,9.40
2022-12-19T07:20:03.475Z,9.90
2022-12-19T07:22:35.809Z,10.10
2022-12-19T07:25:07.285Z,9.67
2022-12-19T07:27:37.459Z,9.70
2022-12-19T07:30:09.160Z,9.67
2022-12-19T07:32:40.050Z,9.57
2022-12-19T07:35:10.216Z,9.83
2022-12-19T07:37:38.919Z,9.77
2022-12-19T07:40:09.355Z,13.43
2022-12-19T07:42:38.899Z,14.87
2022-12-19T07:45:09.007Z,15.37
2022-12-19T07:47:39.176Z,10.17
2022-12-19T07:50:08.467Z,9.80
2022-12-19T07:52:37.322Z,9.67
2022-12-19T07:55:06.990Z,11.10
2022-12-19T07:57:35.765Z,9.30
2022-12-19T08:00:05.698Z,8.90
2022-12-19T08:02:42.809Z,15.90
2022-12-19T08:05:12.703Z,11.23
2022-12-19T08:07:42.089Z,21.20
2022-12-19T08:10:12.671Z,13.10
2022-12-19T08:12:41.666Z,16.93
2022-12-19T08:15:11.498Z,25.97
2022-12-19T08:17:42.013Z,10.90
2022-12-19T08:20:12.637Z,9.90
2022-12-19T08:22:41.457Z,18.47
2022-12-19T08:25:11.205Z,20.43
2022-12-19T08:27:40.108Z,12.10
2022-12-19T08:30:10.784Z,10.80
2022-12-19T08:32:40.122Z,10.87
2022-12-19T08:35:10.989Z,10.50
2022-12-19T08:37:40.742Z,10.50
2022-12-19T08:40:11.354Z,11.70
2022-12-19T08:42:40.224Z,22.17
2022-12-19T08:45:10.539Z,11.10
2022-12-19T08:47:39.260Z,13.33
2022-12-19T08:50:10.420Z,10.43
2022-12-19T08:52:39.355Z,10.23
2022-12-19T08:55:10.127Z,13.10
2022-12-19T08:57:38.873Z,12.33
2022-12-19T09:00:09.798Z,10.47
2022-12-19T09:02:39.259Z,13.80
2022-12-19T09:06:04.030Z,12.13
2022-12-19T09:07:59.211Z,16.63
2022-12-19T09:10:28.039Z,22.10
2022-12-19T09:12:58.088Z,12.97
2022-12-19T09:15:26.928Z,12.27
2022-12-19T09:17:55.736Z,11.07
2022-12-19T09:20:25.956Z,10.73
2022-12-19T09:22:55.295Z,11.67
2022-12-19T09:25:24.055Z,11.90
2022-12-19T09:28:26.277Z,12.40
2022-12-19T09:30:41.586Z,11.60
2022-12-19T09:33:10.762Z,11.97
2022-12-19T09:35:40.900Z,11.53
2022-12-19T09:38:09.682Z,11.83
2022-12-19T09:41:07.471Z,14.47
2022-12-19T09:43:56.630Z,11.27
2022-12-19T09:46:42.482Z,10.47
2022-12-19T09:49:20.152Z,13.13
2022-12-19T09:52:00.482Z,12.80
2022-12-19T09:54:38.167Z,11.67
2022-12-19T09:57:16.318Z,11.10
2022-12-19T09:59:52.291Z,11.03
2022-12-19T10:02:43.017Z,10.87
2022-12-19T10:06:25.105Z,12.73
2022-12-19T10:16:06.081Z,10.80
2022-12-19T10:18:56.425Z,10.90
2022-12-19T10:25:09.010Z,10.83
2022-12-19T10:27:58.594Z,10.03
2022-12-19T10:30:34.396Z,11.00
2022-12-19T10:33:20.558Z,10.53
2022-12-19T10:35:56.180Z,10.77
2022-12-19T10:38:38.322Z,11.33
2022-12-19T10:41:21.991Z,10.83
2022-12-19T10:44:05.874Z,10.60
2022-12-19T10:46:42.557Z,11.37
2022-12-19T10:49:18.539Z,11.10
2022-12-19T10:52:00.214Z,11.63
2022-12-19T10:54:41.715Z,10.47
2022-12-19T10:57:26.279Z,11.33
2022-12-19T11:00:00.804Z,10.93
2022-12-19T11:02:42.592Z,11.53
2022-12-19T11:05:30.318Z,12.23
2022-12-19T11:08:11.381Z,12.33
2022-12-19T11:11:55.184Z,12.03
2022-12-19T11:19:22.329Z,12.03
2022-12-19T11:22:13.202Z,12.73
2022-12-19T11:29:37.952Z,11.90
2022-12-19T11:29:43.775Z,12.27
2022-12-19T11:30:36.672Z,12.70
2022-12-19T11:30:43.362Z,11.63
2022-12-19T11:34:21.429Z,14.37
2022-12-19T11:36:58.137Z,12.50
2022-12-19T11:39:42.137Z,13.27
2022-12-19T11:42:22.292Z,12.70
2022-12-19T11:45:02.738Z,11.60
2022-12-19T11:47:42.216Z,12.77
2022-12-19T11:50:20.739Z,12.13
2022-12-19T11:53:04.475Z,12.20
2022-12-19T11:55:47.946Z,11.57
2022-12-19T11:58:16.871Z,12.03
2022-12-19T12:01:08.042Z,12.07
2022-12-19T12:04:09.869Z,12.47
2022-12-19T12:06:49.662Z,12.43
2022-12-19T12:13:51.149Z,11.73
2022-12-19T12:18:37.594Z,11.90
2022-12-19T12:24:39.851Z,11.77
2022-12-19T12:31:12.903Z,12.30
2022-12-19T12:31:18.626Z,11.23
2022-12-19T12:31:41.324Z,10.60
2022-12-19T12:32:06.511Z,11.60
2022-12-19T12:35:32.686Z,11.30
2022-12-19T12:38:27.212Z,10.87
2022-12-19T12:41:15.323Z,10.43
2022-12-19T12:44:08.535Z,9.50
2022-12-19T12:46:45.052Z,9.40
2022-12-19T12:49:35.994Z,9.70
2022-12-19T12:52:10.403Z,9.93
2022-12-19T12:54:45.219Z,10.50
2022-12-19T12:57:33.880Z,10.27
2022-12-19T13:00:26.809Z,9.47
2022-12-19T13:03:07.113Z,10.60
2022-12-19T13:05:55.649Z,10.27
2022-12-19T13:08:39.497Z,10.40
2022-12-19T13:11:36.176Z,10.30
2022-12-19T13:14:06.079Z,10.63
2022-12-19T13:16:54.946Z,10.80
2022-12-19T13:19:29.179Z,9.63
2022-12-19T13:22:20.482Z,10.87
2022-12-19T13:24:53.058Z,11.13
2022-12-19T13:27:49.470Z,11.37
2022-12-19T13:30:22.111Z,11.20
2022-12-19T13:33:12.059Z,12.03
2022-12-19T13:37:32.451Z,11.17
2022-12-19T13:40:01.729Z,12.33
2022-12-19T13:42:01.451Z,13.83
2022-12-19T13:44:32.120Z,12.17
2022-12-19T13:47:00.982Z,12.00
2022-12-19T13:49:35.352Z,11.90
2022-12-19T13:52:06.294Z,13.07
2022-12-19T13:54:48.646Z,12.80
2022-12-19T13:57:27.452Z,12.97
2022-12-19T14:00:01.818Z,13.90
2022-12-19T14:02:45.378Z,13.80
2022-12-19T14:05:48.562Z,14.70
2022-12-19T14:08:24.878Z,14.37
2022-12-19T14:11:43.157Z,13.87
2022-12-19T14:14:15.027Z,15.13
2022-12-19T14:16:47.472Z,14.77
2022-12-19T14:19:23.363Z,13.40
2022-12-19T14:22:04.371Z,13.33
2022-12-19T14:24:42.179Z,14.10
2022-12-19T14:28:17.611Z,13.50
2022-12-19T14:30:30.345Z,14.03
2022-12-19T14:33:47.423Z,14.43
2022-12-19T14:36:10.213Z,16.43
2022-12-19T14:39:27.234Z,15.17
2022-12-19T14:42:03.975Z,15.10
2022-12-19T14:52:27.908Z,14.53
2022-12-19T14:53:51.675Z,15.73
2022-12-19T14:54:14.515Z,19.50
2022-12-19T14:54:37.068Z,15.30
2022-12-19T14:56:45.107Z,18.33
2022-12-19T14:59:07.441Z,14.97
2022-12-19T15:01:53.110Z,14.70
2022-12-19T15:04:52.575Z,14.67
2022-12-19T15:07:22.405Z,17.30
2022-12-19T15:11:08.833Z,16.27
2022-12-19T15:14:51.498Z,17.40
2022-12-19T15:16:07.387Z,16.73
2022-12-19T15:18:43.595Z,16.20
2022-12-19T15:21:15.495Z,20.83
2022-12-19T15:23:46.299Z,19.40
2022-12-19T15:26:19.382Z,20.10
2022-12-19T15:28:51.990Z,43.37
2022-12-19T15:31:34.857Z,22.20
2022-12-19T15:34:34.729Z,26.13
2022-12-19T15:37:04.887Z,29.27
2022-12-19T15:39:33.840Z,30.20
2022-12-19T15:42:03.371Z,34.70
2022-12-19T15:44:37.901Z,22.70
2022-12-19T15:47:16.728Z,19.40
2022-12-19T15:49:47.360Z,26.97
2022-12-19T15:52:20.099Z,20.87
2022-12-19T15:54:51.058Z,19.63
2022-12-19T15:57:40.872Z,24.97
2022-12-19T16:00:18.685Z,21.67
2022-12-19T16:03:22.976Z,35.67
2022-12-19T16:05:42.338Z,24.40
2022-12-19T16:08:14.539Z,28.50
2022-12-19T16:10:46.323Z,29.20
2022-12-19T16:13:22.289Z,23.23
2022-12-19T16:15:52.298Z,25.57
2022-12-19T16:18:21.151Z,18.33
2022-12-19T16:20:51.551Z,19.73
2022-12-19T16:23:22.450Z,16.27
2022-12-19T16:25:52.790Z,17.83
2022-12-19T16:28:27.115Z,17.67
2022-12-19T16:30:57.810Z,19.50
2022-12-19T16:33:30.474Z,17.63
2022-12-19T16:36:06.087Z,17.57
2022-12-19T16:38:36.022Z,23.50
2022-12-19T16:47:45.013Z,21.00
2022-12-19T16:50:24.315Z,29.20
2022-12-19T16:52:56.217Z,38.10
2022-12-19T16:55:27.552Z,29.57
2022-12-19T16:57:59.023Z,28.83
2022-12-19T17:00:30.416Z,22.03
2022-12-19T17:03:08.743Z,23.97
2022-12-19T17:05:38.107Z,19.23
2022-12-19T17:08:13.469Z,18.63
2022-12-19T17:10:46.434Z,20.63
2022-12-19T17:13:19.051Z,19.67
2022-12-19T17:15:55.965Z,19.27
2022-12-19T17:18:35.915Z,19.57
2022-12-19T17:21:05.630Z,19.93
2022-12-19T17:23:38.821Z,29.93
2022-12-19T17:26:11.458Z,23.00
2022-12-19T17:28:48.967Z,20.63
2022-12-19T17:31:25.679Z,25.47
2022-12-19T17:33:59.177Z,19.03
2022-12-19T17:36:37.115Z,21.57
2022-12-19T17:39:22.291Z,18.63
2022-12-19T17:41:53.466Z,21.10
2022-12-19T17:44:22.480Z,19.67
2022-12-19T17:46:52.580Z,24.07
2022-12-19T17:49:29.405Z,18.10
2022-12-19T17:52:01.316Z,18.27
2022-12-19T17:54:32.910Z,17.67
2022-12-19T17:57:02.013Z,16.47
2022-12-19T17:59:31.047Z,16.03
2022-12-19T18:02:01.074Z,17.47
2022-12-19T18:04:32.311Z,17.07
2022-12-19T18:07:01.642Z,16.70
2022-12-19T18:09:32.196Z,16.07
2022-12-19T18:12:02.147Z,16.83
2022-12-19T18:14:31.788Z,15.33
2022-12-19T18:17:02.122Z,16.13
2022-12-19T18:19:36.391Z,16.37
2022-12-19T18:22:05.801Z,16.00
2022-12-19T18:24:36.539Z,15.50
2022-12-19T18:27:06.466Z,16.20
2022-12-19T18:29:35.656Z,15.83
2022-12-19T18:32:04.784Z,16.40
2022-12-19T18:34:36.031Z,16.63
2022-12-19T18:37:05.585Z,22.77
2022-12-19T18:39:36.929Z,17.50
2022-12-19T18:42:21.289Z,16.97
2022-12-19T18:44:50.377Z,17.33
2022-12-19T18:47:25.504Z,16.13
2022-12-19T18:49:54.591Z,17.47
2022-12-19T18:52:23.606Z,18.67
2022-12-19T18:54:54.161Z,19.53
2022-12-19T18:57:23.214Z,17.90
2022-12-19T18:59:52.041Z,20.43
2022-12-19T19:02:28.936Z,17.03
2022-12-19T19:04:59.008Z,17.43
2022-12-19T19:07:27.761Z,17.37
2022-12-19T19:09:57.965Z,18.07
2022-12-19T19:12:42.922Z,21.27
2022-12-19T19:15:12.278Z,21.33
2022-12-19T19:17:43.600Z,21.77
2022-12-19T19:20:13.275Z,29.70
2022-12-19T19:22:42.298Z,25.93
2022-12-19T19:25:14.318Z,26.53
2022-12-19T19:27:43.556Z,25.67
2022-12-19T19:30:14.117Z,24.37
2022-12-19T19:32:54.998Z,22.77
2022-12-19T19:35:27.289Z,24.60
2022-12-19T19:38:01.548Z,25.57
2022-12-19T19:40:32.150Z,23.50
2022-12-19T19:43:01.116Z,23.10
2022-12-19T19:45:29.775Z,22.67
2022-12-19T19:47:58.585Z,21.87
2022-12-19T19:50:27.282Z,24.10
2022-12-19T19:52:56.312Z,18.73
2022-12-19T19:55:28.830Z,24.57
2022-12-19T19:57:59.352Z,24.77
2022-12-19T20:00:28.878Z,22.57
2022-12-19T20:02:58.003Z,27.10
2022-12-19T20:05:29.860Z,25.57
2022-12-19T20:07:58.972Z,20.27
2022-12-19T20:10:27.796Z,20.97
2022-12-19T20:12:56.587Z,18.33
2022-12-19T20:15:31.968Z,18.00
2022-12-19T20:18:01.058Z,20.60
2022-12-19T20:20:34.036Z,16.77
2022-12-19T20:23:05.238Z,15.53
2022-12-19T20:25:34.110Z,16.87
2022-12-19T20:28:02.945Z,15.20
2022-12-19T20:30:33.720Z,14.53
2022-12-19T20:33:02.443Z,15.30
2022-12-19T20:35:31.422Z,13.73
2022-12-19T20:38:00.231Z,15.30
2022-12-19T20:40:29.788Z,18.37
2022-12-19T20:42:58.542Z,16.60
2022-12-19T20:45:27.460Z,19.63
2022-12-19T20:47:57.857Z,16.47
2022-12-19T20:50:26.638Z,19.63
2022-12-19T20:52:55.694Z,17.33
2022-12-19T20:55:24.655Z,17.93
2022-12-19T20:57:53.353Z,17.37
2022-12-19T21:00:23.533Z,21.27
2022-12-19T21:03:26.465Z,17.20
2022-12-19T21:05:42.787Z,17.37
2022-12-19T21:08:11.557Z,18.23
2022-12-19T21:10:40.312Z,18.33
2022-12-19T21:13:09.051Z,18.33
2022-12-19T21:15:37.786Z,19.50
2022-12-19T21:18:06.684Z,18.57
2022-12-19T21:20:36.976Z,20.37
2022-12-19T21:23:07.438Z,17.67
2022-12-19T21:25:36.217Z,18.73
2022-12-19T21:28:05.280Z,18.47
2022-12-19T21:30:33.994Z,18.07
2022-12-19T21:33:04.003Z,18.63
2022-12-19T21:35:35.011Z,38.97
2022-12-19T21:38:04.104Z,21.07
2022-12-19T21:40:39.067Z,23.83
2022-12-19T21:43:11.701Z,20.73
2022-12-19T21:45:41.363Z,20.30
2022-12-19T21:48:10.163Z,21.57
2022-12-19T21:50:38.932Z,19.33
2022-12-19T21:53:07.662Z,18.33
2022-12-19T21:55:36.391Z,20.93
2022-12-19T21:58:06.489Z,19.97
2022-12-19T22:00:35.270Z,20.27
2022-12-19T22:03:19.402Z,19.67
2022-12-19T22:05:48.289Z,18.23
2022-12-19T22:08:18.104Z,19.23
2022-12-19T22:10:46.951Z,19.67
2022-12-19T22:13:17.075Z,18.77
2022-12-19T22:15:46.032Z,19.10
2022-12-19T22:18:14.747Z,18.60
2022-12-19T22:20:44.070Z,21.23
2022-12-19T22:23:13.948Z,19.87
2022-12-19T22:25:42.751Z,18.40
2022-12-19T22:28:11.764Z,19.83
2022-12-19T22:30:41.919Z,19.83
2022-12-19T22:33:14.928Z,18.53
2022-12-19T22:35:43.731Z,19.27
2022-12-19T22:38:12.511Z,18.03
2022-12-19T22:40:41.239Z,18.33
2022-12-19T22:43:10.026Z,19.03
2022-12-19T22:45:38.798Z,16.97
2022-12-19T22:48:09.271Z,16.60
2022-12-19T22:50:38.012Z,17.20
2022-12-19T22:53:12.615Z,15.80
2022-12-19T22:55:42.236Z,16.80
2022-12-19T22:58:11.105Z,16.00
2022-12-19T23:00:39.943Z,16.63
2022-12-19T23:03:10.243Z,15.27
2022-12-19T23:05:39.268Z,16.57
2022-12-19T23:08:08.363Z,18.53
2022-12-19T23:10:37.134Z,17.47
2022-12-19T23:13:05.815Z,16.13
2022-12-19T23:15:36.807Z,17.60
2022-12-19T23:18:05.850Z,15.67
2022-12-19T23:20:36.036Z,16.53
2022-12-19T23:23:05.267Z,16.80
2022-12-19T23:25:39.953Z,17.00
2022-12-19T23:28:09.492Z,15.63
2022-12-19T23:30:38.523Z,16.73
2022-12-19T23:33:07.258Z,16.30
2022-12-19T23:35:37.389Z,17.50
2022-12-19T23:38:06.118Z,16.90
2022-12-19T23:40:35.210Z,16.30
2022-12-19T23:43:04.020Z,16.87
2022-12-19T23:45:32.892Z,16.63
2022-12-19T23:48:01.768Z,15.80
2022-12-19T23:50:30.540Z,17.00
2022-12-19T23:53:00.641Z,18.27
2022-12-19T23:55:29.332Z,17.10
2022-12-19T23:57:58.128Z,17.67
